createdAt,value
2019-05-07T00:01:16.666Z,18.00
2019-05-07T00:03:45.227Z,18.00
2019-05-07T00:06:13.799Z,18.00
2019-05-07T00:08:44.707Z,17.90
2019-05-07T00:11:12.849Z,17.90
2019-05-07T00:13:44.099Z,17.90
2019-05-07T00:16:12.805Z,17.90
2019-05-07T00:18:42.923Z,17.90
2019-05-07T00:21:12.618Z,17.90
2019-05-07T00:23:43.206Z,17.80
2019-05-07T00:26:13.239Z,17.80
2019-05-07T00:28:43.244Z,17.80
2019-05-07T00:31:12.414Z,17.80
2019-05-07T00:33:43.210Z,17.80
2019-05-07T00:36:17.910Z,17.80
2019-05-07T00:38:52.063Z,17.80
2019-05-07T00:41:26.759Z,17.80
2019-05-07T00:43:57.067Z,17.90
2019-05-07T00:46:32.185Z,17.90
2019-05-07T00:49:02.390Z,17.90
2019-05-07T00:51:33.361Z,17.90
2019-05-07T00:54:02.926Z,17.90
2019-05-07T00:56:33.189Z,18.00
2019-05-07T00:59:02.320Z,18.00
2019-05-07T01:01:32.329Z,18.00
2019-05-07T01:04:02.717Z,18.00
2019-05-07T01:06:33.123Z,18.00
2019-05-07T01:09:03.205Z,18.00
2019-05-07T01:11:33.525Z,18.00
2019-05-07T01:14:02.842Z,18.00
2019-05-07T01:16:32.992Z,18.00
2019-05-07T01:19:02.231Z,17.90
2019-05-07T01:21:32.521Z,17.90
2019-05-07T01:24:03.290Z,17.90
2019-05-07T01:26:33.088Z,17.80
2019-05-07T01:29:03.197Z,17.80
2019-05-07T01:31:48.833Z,17.80
2019-05-07T01:34:25.642Z,17.80
2019-05-07T01:36:54.228Z,17.80
2019-05-07T01:39:23.294Z,17.80
2019-05-07T01:41:52.510Z,17.70
2019-05-07T01:44:22.126Z,17.70
2019-05-07T01:46:52.911Z,17.70
2019-05-07T01:49:23.876Z,17.70
2019-05-07T01:51:52.972Z,17.70
2019-05-07T01:54:23.695Z,17.70
2019-05-07T01:56:52.438Z,17.80
2019-05-07T01:59:22.481Z,17.80
2019-05-07T02:01:52.952Z,17.80
2019-05-07T02:04:34.110Z,17.80
2019-05-07T02:07:22.687Z,17.90
2019-05-07T02:10:09.062Z,17.90
2019-05-07T02:12:38.397Z,17.90
2019-05-07T02:15:08.233Z,17.90
2019-05-07T02:17:36.797Z,17.90
2019-05-07T02:20:05.926Z,17.90
2019-05-07T02:22:35.578Z,17.90
2019-05-07T02:25:04.215Z,17.90
2019-05-07T02:27:33.005Z,17.80
2019-05-07T02:30:04.070Z,17.80
2019-05-07T02:32:33.473Z,17.80
2019-05-07T02:35:04.026Z,17.80
2019-05-07T02:37:52.070Z,17.80
2019-05-07T02:40:25.176Z,17.70
2019-05-07T02:42:54.203Z,17.70
2019-05-07T02:45:32.956Z,17.70
2019-05-07T02:48:00.046Z,17.70
2019-05-07T02:50:53.923Z,17.70
2019-05-07T02:53:26.980Z,17.70
2019-05-07T02:55:56.917Z,17.70
2019-05-07T02:58:25.520Z,17.70
2019-05-07T03:00:54.071Z,17.70
2019-05-07T03:03:24.752Z,17.70
2019-05-07T03:05:53.776Z,17.70
2019-05-07T03:08:27.024Z,17.70
2019-05-07T03:10:53.010Z,17.70
2019-05-07T03:13:23.596Z,17.70
2019-05-07T03:15:54.034Z,17.70
2019-05-07T03:18:23.483Z,17.70
2019-05-07T03:20:57.378Z,17.80
2019-05-07T03:23:33.752Z,17.90
2019-05-07T03:26:06.842Z,17.80
2019-05-07T03:28:55.638Z,17.90
2019-05-07T03:31:36.059Z,17.90
2019-05-07T03:34:16.615Z,17.90
2019-05-07T03:36:48.946Z,17.90
2019-05-07T03:39:17.900Z,17.80
2019-05-07T03:41:46.611Z,17.90
2019-05-07T03:44:23.858Z,17.80
2019-05-07T03:47:01.494Z,17.80
2019-05-07T03:49:33.850Z,17.80
2019-05-07T03:52:03.848Z,17.80
2019-05-07T03:54:33.873Z,17.80
2019-05-07T03:57:09.548Z,17.80
2019-05-07T03:59:34.176Z,17.80
2019-05-07T04:02:03.354Z,17.80
2019-05-07T04:04:33.275Z,17.80
2019-05-07T04:07:03.485Z,17.80
2019-05-07T04:09:33.386Z,17.80
2019-05-07T04:12:03.964Z,17.80
2019-05-07T04:14:34.398Z,17.80
2019-05-07T04:17:14.372Z,17.70
2019-05-07T04:19:33.520Z,17.80
2019-05-07T04:22:04.295Z,17.70
2019-05-07T04:24:57.947Z,17.70
2019-05-07T04:27:33.215Z,17.70
2019-05-07T04:30:03.809Z,17.80
2019-05-07T04:32:38.928Z,17.90
2019-05-07T04:35:13.231Z,17.90
2019-05-07T04:37:42.771Z,18.00
2019-05-07T04:40:13.481Z,18.00
2019-05-07T04:42:42.745Z,18.00
2019-05-07T04:45:13.624Z,18.00
2019-05-07T04:48:03.050Z,18.00
2019-05-07T04:50:42.730Z,17.90
2019-05-07T04:53:03.746Z,17.80
2019-05-07T04:55:33.482Z,17.80
2019-05-07T04:58:03.395Z,17.80
2019-05-07T05:00:33.546Z,17.80
2019-05-07T05:03:12.899Z,17.80
2019-05-07T05:05:43.536Z,17.80
2019-05-07T05:08:13.362Z,17.80
2019-05-07T05:10:43.287Z,17.70
2019-05-07T05:13:13.041Z,17.70
2019-05-07T05:15:43.189Z,17.70
2019-05-07T05:18:12.694Z,17.70
2019-05-07T05:20:48.585Z,17.80
2019-05-07T05:23:36.634Z,17.70
2019-05-07T05:26:05.230Z,17.70
2019-05-07T05:28:34.139Z,17.70
2019-05-07T05:31:04.567Z,17.70
2019-05-07T05:33:33.102Z,17.80
2019-05-07T05:36:03.066Z,17.80
2019-05-07T05:38:32.917Z,17.80
2019-05-07T05:41:02.734Z,17.80
2019-05-07T05:43:52.615Z,17.80
2019-05-07T05:46:22.652Z,17.90
2019-05-07T05:48:52.003Z,18.00
2019-05-07T05:51:45.910Z,17.90
2019-05-07T05:54:32.019Z,18.00
2019-05-07T05:57:08.340Z,17.90
2019-05-07T05:59:51.289Z,17.90
2019-05-07T06:02:32.473Z,18.00
2019-05-07T06:05:34.305Z,18.00
2019-05-07T06:08:28.880Z,18.00
2019-05-07T06:11:04.438Z,17.90
2019-05-07T06:13:42.636Z,18.00
2019-05-07T06:16:22.030Z,18.00
2019-05-07T06:19:04.862Z,17.90
2019-05-07T06:22:01.992Z,17.90
2019-05-07T06:24:38.519Z,17.80
2019-05-07T06:27:07.167Z,17.80
2019-05-07T06:29:35.735Z,17.80
2019-05-07T06:32:06.702Z,17.80
2019-05-07T06:34:35.290Z,17.80
2019-05-07T06:37:03.846Z,17.80
2019-05-07T06:39:39.002Z,17.80
2019-05-07T06:42:27.529Z,17.80
2019-05-07T06:45:14.351Z,17.80
2019-05-07T06:47:42.923Z,17.90
2019-05-07T06:50:12.503Z,17.90
2019-05-07T06:52:42.578Z,17.90
2019-05-07T06:55:12.157Z,17.90
2019-05-07T06:57:42.511Z,17.90
2019-05-07T07:00:31.887Z,18.00
2019-05-07T07:03:08.650Z,18.00
2019-05-07T07:05:55.154Z,18.10
2019-05-07T07:08:29.964Z,18.10
2019-05-07T07:11:03.278Z,18.10
2019-05-07T07:13:32.334Z,18.20
2019-05-07T07:16:01.890Z,18.20
2019-05-07T07:18:32.273Z,18.20
2019-05-07T07:21:02.176Z,18.20
2019-05-07T07:23:32.308Z,18.20
2019-05-07T07:26:03.150Z,18.20
2019-05-07T07:28:32.729Z,18.20
2019-05-07T07:31:08.495Z,18.20
2019-05-07T07:33:39.929Z,18.20
2019-05-07T07:36:08.469Z,18.30
2019-05-07T07:38:37.035Z,18.30
2019-05-07T07:41:12.730Z,18.30
2019-05-07T07:43:41.947Z,18.30
2019-05-07T07:46:12.842Z,18.40
2019-05-07T07:48:43.348Z,18.40
2019-05-07T07:51:13.592Z,18.50
2019-05-07T07:53:42.501Z,18.50
2019-05-07T07:56:51.899Z,18.50
2019-05-07T07:59:35.146Z,18.50
2019-05-07T08:02:32.331Z,18.50
2019-05-07T08:05:02.110Z,18.50
2019-05-07T08:07:32.946Z,18.50
2019-05-07T08:10:02.605Z,18.50
2019-05-07T08:12:32.531Z,18.50
2019-05-07T08:15:14.789Z,18.50
2019-05-07T08:17:32.624Z,18.50
2019-05-07T08:20:02.522Z,18.50
2019-05-07T08:22:32.997Z,18.50
2019-05-07T08:25:03.650Z,18.50
2019-05-07T08:27:32.585Z,18.50
2019-05-07T08:30:02.935Z,18.50
2019-05-07T08:32:52.779Z,18.60
2019-05-07T08:35:25.085Z,18.60
2019-05-07T08:37:53.698Z,18.60
2019-05-07T08:40:22.539Z,18.60
2019-05-07T08:42:52.385Z,18.50
2019-05-07T08:45:39.131Z,18.60
2019-05-07T08:48:26.839Z,18.60
2019-05-07T08:50:55.674Z,18.60
2019-05-07T08:53:24.434Z,18.70
2019-05-07T08:55:52.983Z,18.70
2019-05-07T08:58:22.378Z,18.70
2019-05-07T09:00:52.297Z,18.70
2019-05-07T09:03:38.868Z,18.70
2019-05-07T09:06:07.517Z,18.70
2019-05-07T09:08:36.538Z,18.70
2019-05-07T09:11:05.114Z,18.70
2019-05-07T09:13:33.730Z,18.70
2019-05-07T09:16:02.490Z,18.70
2019-05-07T09:18:32.207Z,18.70
2019-05-07T09:21:02.226Z,18.80
2019-05-07T09:23:31.967Z,18.70
2019-05-07T09:26:02.605Z,18.80
2019-05-07T09:28:53.211Z,18.80
2019-05-07T09:31:32.238Z,18.80
2019-05-07T09:34:02.658Z,18.90
2019-05-07T09:36:37.877Z,18.80
2019-05-07T09:39:06.980Z,18.80
2019-05-07T09:41:35.915Z,18.90
2019-05-07T09:44:04.966Z,18.90
2019-05-07T09:46:33.552Z,18.90
2019-05-07T09:49:05.274Z,18.90
2019-05-07T09:51:35.980Z,18.80
2019-05-07T09:54:05.034Z,18.90
2019-05-07T09:56:33.932Z,18.90
2019-05-07T09:59:02.751Z,18.90
2019-05-07T10:01:31.966Z,18.90
2019-05-07T10:04:02.629Z,18.90
2019-05-07T10:06:32.111Z,18.90
2019-05-07T10:09:02.709Z,19.00
2019-05-07T10:11:38.398Z,19.00
2019-05-07T10:14:12.225Z,18.90
2019-05-07T10:16:49.238Z,19.00
2019-05-07T10:19:17.888Z,19.00
2019-05-07T10:21:46.530Z,19.00
2019-05-07T10:24:15.482Z,19.00
2019-05-07T10:26:44.156Z,19.00
2019-05-07T10:29:13.062Z,19.00
2019-05-07T10:31:42.474Z,19.00
2019-05-07T10:34:12.292Z,19.10
2019-05-07T10:36:42.140Z,19.10
2019-05-07T10:39:12.731Z,19.10
2019-05-07T10:41:42.520Z,19.10
2019-05-07T10:44:12.486Z,18.90
2019-05-07T10:47:12.884Z,18.90
2019-05-07T10:49:45.710Z,18.90
2019-05-07T10:52:14.406Z,19.00
2019-05-07T10:54:43.961Z,18.90
2019-05-07T10:57:13.506Z,18.90
2019-05-07T10:59:42.454Z,18.90
2019-05-07T11:02:15.950Z,18.90
2019-05-07T11:04:45.977Z,19.00
2019-05-07T11:07:15.006Z,19.00
2019-05-07T11:09:43.646Z,18.90
2019-05-07T11:12:12.854Z,18.90
2019-05-07T11:14:41.494Z,18.90
2019-05-07T11:17:16.555Z,18.90
2019-05-07T11:19:45.214Z,18.90
2019-05-07T11:22:14.052Z,18.90
2019-05-07T11:24:43.451Z,18.90
2019-05-07T11:27:12.650Z,18.90
2019-05-07T11:29:42.937Z,18.90
2019-05-07T11:32:12.372Z,18.90
2019-05-07T11:34:43.890Z,18.90
2019-05-07T11:37:12.718Z,18.90
2019-05-07T11:39:42.745Z,18.90
2019-05-07T11:42:33.554Z,19.00
2019-05-07T11:45:02.594Z,19.00
2019-05-07T11:47:32.719Z,19.00
2019-05-07T11:50:19.683Z,19.00
2019-05-07T11:52:56.446Z,19.00
2019-05-07T11:55:25.273Z,19.00
2019-05-07T11:57:54.202Z,18.90
2019-05-07T12:00:34.021Z,19.00
2019-05-07T12:03:02.866Z,19.00
2019-05-07T12:05:33.194Z,18.90
2019-05-07T12:08:02.531Z,19.00
2019-05-07T12:10:32.760Z,19.00
2019-05-07T12:13:02.383Z,19.10
2019-05-07T12:15:32.398Z,19.10
2019-05-07T12:18:03.100Z,19.10
2019-05-07T12:20:32.452Z,19.10
2019-05-07T12:23:02.917Z,19.10
2019-05-07T12:25:32.273Z,19.10
2019-05-07T12:28:02.388Z,19.10
2019-05-07T12:30:51.755Z,19.10
2019-05-07T12:33:39.951Z,19.10
2019-05-07T12:36:09.598Z,19.10
2019-05-07T12:38:38.538Z,19.20
2019-05-07T12:41:26.578Z,19.20
2019-05-07T12:43:55.238Z,19.20
2019-05-07T12:46:24.160Z,19.20
2019-05-07T12:48:53.003Z,19.20
2019-05-07T12:51:33.502Z,19.20
2019-05-07T12:53:57.803Z,19.10
2019-05-07T12:56:26.689Z,19.20
2019-05-07T12:58:55.682Z,19.10
2019-05-07T13:01:37.994Z,19.00
2019-05-07T13:04:09.641Z,19.10
2019-05-07T13:06:45.395Z,19.10
2019-05-07T13:09:13.946Z,19.10
2019-05-07T13:11:42.877Z,19.10
2019-05-07T13:14:12.577Z,19.10
2019-05-07T13:16:42.058Z,19.20
2019-05-07T13:19:13.078Z,19.10
2019-05-07T13:21:49.171Z,19.10
2019-05-07T13:24:14.899Z,19.10
2019-05-07T13:26:43.082Z,19.10
2019-05-07T13:29:12.819Z,19.10
2019-05-07T13:31:41.639Z,19.10
2019-05-07T13:34:12.219Z,19.10
2019-05-07T13:36:44.793Z,19.10
2019-05-07T13:39:23.293Z,19.10
2019-05-07T13:41:59.415Z,19.10
2019-05-07T13:44:34.774Z,19.00
2019-05-07T13:47:21.919Z,19.10
2019-05-07T13:49:53.548Z,19.10
2019-05-07T13:52:22.088Z,19.10
2019-05-07T13:54:52.568Z,19.10
2019-05-07T13:57:22.664Z,19.10
2019-05-07T13:59:53.005Z,19.10
2019-05-07T14:02:23.406Z,19.10
2019-05-07T14:04:52.743Z,19.10
2019-05-07T14:07:21.872Z,19.10
2019-05-07T14:09:52.492Z,19.10
2019-05-07T14:12:22.723Z,19.10
2019-05-07T14:14:52.991Z,19.10
2019-05-07T14:17:22.555Z,19.10
2019-05-07T14:19:53.094Z,19.10
2019-05-07T14:22:22.576Z,19.20
2019-05-07T14:24:52.969Z,19.20
2019-05-07T14:27:21.863Z,19.10
2019-05-07T14:29:52.063Z,19.10
2019-05-07T14:32:32.987Z,19.10
2019-05-07T14:35:18.193Z,19.10
2019-05-07T14:37:52.253Z,19.10
2019-05-07T14:40:22.303Z,19.10
2019-05-07T14:42:56.502Z,19.10
2019-05-07T14:45:25.098Z,19.10
2019-05-07T14:47:53.659Z,19.10
2019-05-07T14:50:22.747Z,19.10
2019-05-07T14:52:52.292Z,19.10
2019-05-07T14:55:22.299Z,19.10
2019-05-07T14:57:52.459Z,19.10
2019-05-07T15:00:22.534Z,19.10
2019-05-07T15:02:52.487Z,19.00
2019-05-07T15:05:22.404Z,19.10
2019-05-07T15:07:51.162Z,19.10
2019-05-07T15:10:22.077Z,19.10
2019-05-07T15:12:52.029Z,19.10
2019-05-07T15:15:22.007Z,19.10
2019-05-07T15:18:12.134Z,19.10
2019-05-07T15:20:41.951Z,19.00
2019-05-07T15:23:22.572Z,19.10
2019-05-07T15:25:51.761Z,19.10
2019-05-07T15:28:22.667Z,19.00
2019-05-07T15:31:00.168Z,19.00
2019-05-07T15:33:28.724Z,19.00
2019-05-07T15:35:57.314Z,19.00
2019-05-07T15:38:25.914Z,19.00
2019-05-07T15:40:54.718Z,19.00
2019-05-07T15:43:23.273Z,19.00
2019-05-07T15:45:52.457Z,19.00
2019-05-07T15:48:22.024Z,18.90
2019-05-07T15:50:51.978Z,19.00
2019-05-07T15:53:24.884Z,18.90
2019-05-07T15:55:53.494Z,18.90
2019-05-07T15:58:22.838Z,19.00
2019-05-07T16:00:51.792Z,19.00
2019-05-07T16:03:25.722Z,18.90
2019-05-07T16:05:54.303Z,18.90
2019-05-07T16:08:24.250Z,18.90
2019-05-07T16:10:53.234Z,19.00
2019-05-07T16:13:25.924Z,18.90
2019-05-07T16:15:54.538Z,18.90
2019-05-07T16:18:28.306Z,18.90
2019-05-07T16:20:57.195Z,18.90
2019-05-07T16:23:26.086Z,18.90
2019-05-07T16:25:54.641Z,19.00
2019-05-07T16:28:23.268Z,18.90
2019-05-07T16:30:52.245Z,18.90
2019-05-07T16:33:20.975Z,18.90
2019-05-07T16:35:49.610Z,18.90
2019-05-07T16:38:18.454Z,19.00
2019-05-07T16:40:47.302Z,19.00
2019-05-07T16:43:15.913Z,18.90
2019-05-07T16:45:44.551Z,18.90
2019-05-07T16:50:42.001Z,18.90
2019-05-07T16:53:13.466Z,18.90
2019-05-07T16:55:42.978Z,18.90
2019-05-07T16:58:24.210Z,18.90
2019-05-07T17:00:56.339Z,18.90
2019-05-07T17:03:31.876Z,18.90
2019-05-07T17:06:01.833Z,18.80
2019-05-07T17:08:35.385Z,18.80
2019-05-07T17:11:03.967Z,18.80
2019-05-07T17:13:32.509Z,18.80
2019-05-07T17:16:03.407Z,18.80
2019-05-07T17:18:32.707Z,18.80
2019-05-07T17:21:02.074Z,18.70
2019-05-07T17:23:43.654Z,18.80
2019-05-07T17:26:01.367Z,18.80
2019-05-07T17:28:31.883Z,18.80
2019-05-07T17:31:00.206Z,18.90
2019-05-07T17:33:28.809Z,18.90
2019-05-07T17:35:57.425Z,18.90
2019-05-07T17:38:26.721Z,18.80
2019-05-07T17:41:09.156Z,18.80
2019-05-07T17:43:25.793Z,18.90
2019-05-07T17:45:54.325Z,18.90
2019-05-07T17:48:23.410Z,18.80
2019-05-07T17:51:21.890Z,18.80
2019-05-07T17:53:57.588Z,18.80
2019-05-07T17:56:22.341Z,18.80
2019-05-07T17:58:52.255Z,18.80
2019-05-07T18:01:58.137Z,18.80
2019-05-07T18:04:27.070Z,18.80
2019-05-07T18:06:55.610Z,18.80
2019-05-07T18:09:24.394Z,18.80
2019-05-07T18:11:53.018Z,18.70
2019-05-07T18:14:22.800Z,18.70
2019-05-07T18:17:13.445Z,18.70
2019-05-07T18:19:42.969Z,18.70
2019-05-07T18:22:12.785Z,18.70
2019-05-07T18:24:41.994Z,18.70
2019-05-07T18:27:14.222Z,18.70
2019-05-07T18:29:42.981Z,18.70
2019-05-07T18:32:12.405Z,18.70
2019-05-07T18:34:42.762Z,18.60
2019-05-07T18:37:12.599Z,18.60
2019-05-07T18:39:42.815Z,18.70
2019-05-07T18:42:12.724Z,18.70
2019-05-07T18:44:41.698Z,18.70
2019-05-07T18:47:10.431Z,18.70
2019-05-07T18:49:38.986Z,18.70
2019-05-07T18:52:07.606Z,18.70
2019-05-07T18:54:36.138Z,18.70
2019-05-07T18:57:04.691Z,18.70
2019-05-07T18:59:34.802Z,18.60
2019-05-07T19:02:03.771Z,18.60
2019-05-07T19:04:32.773Z,18.60
2019-05-07T19:07:02.516Z,18.60
2019-05-07T19:09:31.945Z,18.60
2019-05-07T19:12:00.669Z,18.60
2019-05-07T19:14:29.229Z,18.50
2019-05-07T19:16:57.767Z,18.60
2019-05-07T19:19:26.302Z,18.60
2019-05-07T19:21:54.872Z,18.60
2019-05-07T19:24:26.227Z,18.60
2019-05-07T19:26:53.794Z,18.60
2019-05-07T19:29:23.360Z,18.50
2019-05-07T19:31:52.627Z,18.50
2019-05-07T19:34:21.796Z,18.60
2019-05-07T19:36:52.080Z,18.60
2019-05-07T19:39:23.203Z,18.50
2019-05-07T19:41:52.319Z,18.50
2019-05-07T19:44:21.009Z,18.50
2019-05-07T19:46:49.775Z,18.50
2019-05-07T19:49:18.319Z,18.50
2019-05-07T19:51:46.855Z,18.50
2019-05-07T19:54:15.416Z,18.50
2019-05-07T19:56:44.226Z,18.50
2019-05-07T19:59:13.108Z,18.50
2019-05-07T20:01:46.156Z,18.50
2019-05-07T20:04:14.681Z,18.60
2019-05-07T20:06:43.236Z,18.50
2019-05-07T20:09:15.656Z,18.50
2019-05-07T20:11:46.178Z,18.60
2019-05-07T20:14:14.711Z,18.50
2019-05-07T20:16:43.262Z,18.50
2019-05-07T20:19:12.157Z,18.50
2019-05-07T20:21:40.818Z,18.50
2019-05-07T20:24:09.682Z,18.60
2019-05-07T20:26:38.490Z,18.50
2019-05-07T20:29:07.254Z,18.40
2019-05-07T20:31:35.814Z,18.40
2019-05-07T20:34:04.347Z,18.40
2019-05-07T20:36:33.156Z,18.40
2019-05-07T20:39:02.315Z,18.40
2019-05-07T20:41:32.539Z,18.30
2019-05-07T20:44:02.894Z,18.40
2019-05-07T20:46:32.633Z,18.50
2019-05-07T20:49:02.863Z,18.50
2019-05-07T20:51:32.483Z,18.50
2019-05-07T20:54:08.479Z,18.50
2019-05-07T20:56:38.955Z,18.50
2019-05-07T20:59:07.492Z,18.50
2019-05-07T21:01:36.273Z,18.50
2019-05-07T21:04:04.890Z,18.50
2019-05-07T21:06:33.446Z,18.60
2019-05-07T21:09:01.978Z,18.50
2019-05-07T21:11:32.351Z,18.50
2019-05-07T21:14:03.078Z,18.50
2019-05-07T21:16:32.899Z,18.40
2019-05-07T21:19:02.134Z,18.40
2019-05-07T21:21:32.754Z,18.30
2019-05-07T21:24:02.079Z,18.30
2019-05-07T21:26:32.690Z,18.30
2019-05-07T21:29:02.997Z,18.40
2019-05-07T21:31:32.200Z,18.40
2019-05-07T21:34:02.914Z,18.30
2019-05-07T21:36:32.429Z,18.30
2019-05-07T21:39:02.329Z,18.40
2019-05-07T21:41:33.535Z,18.30
2019-05-07T21:44:02.071Z,18.30
2019-05-07T21:46:32.762Z,18.30
2019-05-07T21:49:02.639Z,18.30
2019-05-07T21:51:31.365Z,18.30
2019-05-07T21:54:06.087Z,18.30
2019-05-07T21:56:54.600Z,18.30
2019-05-07T21:59:24.946Z,18.40
2019-05-07T22:01:57.558Z,18.40
2019-05-07T22:04:26.488Z,18.40
2019-05-07T22:06:55.283Z,18.40
2019-05-07T22:09:23.839Z,18.50
2019-05-07T22:11:53.797Z,18.40
2019-05-07T22:14:22.470Z,18.40
2019-05-07T22:16:54.253Z,18.50
2019-05-07T22:19:21.303Z,18.50
2019-05-07T22:21:52.166Z,18.40
2019-05-07T22:24:22.336Z,18.50
2019-05-07T22:26:50.989Z,18.50
2019-05-07T22:29:19.606Z,18.40
2019-05-07T22:31:55.511Z,18.40
2019-05-07T22:34:34.963Z,18.40
2019-05-07T22:37:03.511Z,18.40
2019-05-07T22:39:32.709Z,18.30
2019-05-07T22:42:02.383Z,18.30
2019-05-07T22:44:32.171Z,18.40
2019-05-07T22:47:15.953Z,18.40
2019-05-07T22:49:44.941Z,18.30
2019-05-07T22:52:13.605Z,18.30
2019-05-07T22:54:42.719Z,18.40
2019-05-07T22:57:19.588Z,18.30
2019-05-07T22:59:48.137Z,18.30
2019-05-07T23:02:16.857Z,18.30
2019-05-07T23:04:45.919Z,18.40
2019-05-07T23:07:14.730Z,18.40
2019-05-07T23:09:44.924Z,18.40
2019-05-07T23:12:13.702Z,18.40
2019-05-07T23:14:42.525Z,18.40
2019-05-07T23:17:12.609Z,18.40
2019-05-07T23:19:41.916Z,18.40
2019-05-07T23:22:13.411Z,18.40
2019-05-07T23:24:42.596Z,18.40
2019-05-07T23:27:12.156Z,18.40
2019-05-07T23:29:41.799Z,18.40
2019-05-07T23:32:12.703Z,18.40
2019-05-07T23:34:41.517Z,18.40
2019-05-07T23:37:11.751Z,18.40
2019-05-07T23:39:42.402Z,18.40
2019-05-07T23:42:21.255Z,18.40
2019-05-07T23:44:49.812Z,18.40
2019-05-07T23:47:18.358Z,18.50
2019-05-07T23:49:46.925Z,18.50
2019-05-07T23:52:15.485Z,18.40
2019-05-07T23:54:44.038Z,18.40
2019-05-07T23:57:15.272Z,18.40
2019-05-07T23:59:42.897Z,18.40
